Aérodrome :
LOGIN :

S'inscrire | Disclaimer

   EN    FR    IT 

 










Légende :    VFR   VFR Marginal   IFR   IFR Intensif   IFR Très Intensif
Visi : 
Plafond : 
>= 8 km
>= 3000ft
5 à 8 km
1000 à 3000 ft
1500m à 5 km
500 à 1000 ft
800 à 1500m
200 à 500 ft
< 800m
< 200 ft
Symboles :   Orages  Brouillard  Fortes neiges  Fortes précipitations  Vent > 20 kt
SIGMETs :   Divers  Orages  Givrage  Turbulence  Onde Orograph.  Cendres Volcan.






- Altitude de l'aérodrome : 1830 ft


EBLB - Butgenbach Elsenborn

DERNIER METAR :
  • 071455Z AUTO 03007KT 9999 NCD 21/04 Q1024 BLU

METARs EXPIRÉS :
  • 071425Z AUTO 01005KT 9999 NCD 21/05 Q1024 BLU
  • 071355Z AUTO 02008KT 9999 NCD 21/04 Q1024 BLU
  • 071325Z AUTO 02006KT 9999 NCD 21/05 Q1024 BLU
  • 071255Z AUTO 03004KT 9999 NCD 20/04 Q1024 BLU
  • 071225Z AUTO 06007KT 9999 NCD 20/05 Q1025 BLU

Prévision TAF périmée.



MET'MAP, la Météo Aéronautique d'un coup d'oeil ! - Copyright ORBIFLY Décembre 2007 - Disclaimer

ORBIFLY MET'MAP TEAM :

Programmation & Développement : Alexandra Zaïnal
Sur une idée originale de : Baudouin d'Aumeries
Soutien technique & logistique : Manuel Goepfert
Assistance : Marc-Olivier Méhu




SOURCES & CREDITS :

   NOAA